Terminal Aerodrome Forecast
Issued by NWS

Home | Current Version | Previous Version | Text Only | Print | Product List | Glossary On
Versions: 1 2 3 4 5 6 7 8 9 10 11 12 13 14 15 16 17 18 19 20
000
FTUS44 KMAF 280500
TAFFST
TAF
KFST 280527Z 2806/2906 14019KT P6SM SCT200
     FM281000 14015KT P6SM OVC030
     FM281300 15015KT P6SM OVC019
     FM281800 15016G26KT P6SM SCT050 BKN250
     FM290200 16016KT P6SM FEW045 BKN200=

USA.gov is the U.S. government's official web portal to all federal, state and local government web resources and services.